Stations météo

réclame
Mon MeteoGroup
Lluc, Espagne (8304): Température de l'air & dewpoint: 17.02.2018 07:00:00 - 23.02.2018 07:00:00 (CET)Lluc, Espagne (8304): Vitesse du vent & gusts: 17.02.2018 07:00:00 - 23.02.2018 07:00:00 (CET)Lluc, Espagne (8304): Direction du vent: 17.02.2018 07:00:00 - 23.02.2018 07:00:00 (CET)Lluc, Espagne (8304): Quantités de précipitations: 17.02.2018 07:00:00 - 23.02.2018 07:00:00 (CET)
Date & Time tt [°C] td [°C] ff [km/h] ff [knt] fx [km/h] fx [knt] dd rr [mm]
23.02.2018 07:00:00 2,3 0,9 0 0 4 2 SE -
23.02.2018 06:00:00 2,0 0,6 0 0 5 3 N 0,4
23.02.2018 05:00:00 1,9 0,4 0 0 0 0 N 0,0
23.02.2018 04:00:00 2,1 0,6 0 0 7 4 N 0,0
23.02.2018 03:00:00 2,1 0,6 0 0 8 4 SSE 0,0
23.02.2018 02:00:00 2,2 0,6 0 0 9 5 SW 0,0
23.02.2018 01:00:00 2,1 0,6 1 0 9 5 SW -
23.02.2018 00:00:00 1,8 0,4 0 0 0 0 N 0,0
22.02.2018 23:00:00 1,4 0,0 1 0 6 4 W 0,0
22.02.2018 22:00:00 1,4 0,0 1 1 8 5 W 0,0
22.02.2018 21:00:00 1,8 0,4 0 0 8 4 SW 0,0
22.02.2018 20:00:00 2,4 0,9 0 0 5 3 N 0,1
22.02.2018 19:00:00 2,4 0,9 0 0 0 0 N -
22.02.2018 18:00:00 2,3 0,6 0 0 0 0 N 0,1
22.02.2018 17:00:00 2,7 1,1 1 0 5 3 NW 0,3
22.02.2018 16:00:00 2,6 1,1 2 1 6 3 ENE 0,5
22.02.2018 15:00:00 2,6 1,1 0 0 5 3 W 1,1
22.02.2018 14:00:00 2,6 1,1 0 0 4 2 SW 1,8
22.02.2018 13:00:00 2,4 0,9 0 0 8 5 SSW -
22.02.2018 12:00:00 3,2 1,5 0 0 11 6 NE 0,3
22.02.2018 11:00:00 2,4 0,9 0 0 6 3 NNW 0,8
22.02.2018 10:00:00 2,4 0,6 0 0 4 2 NW 0,6
22.02.2018 09:00:00 1,9 0,0 0 0 18 10 N 5,1
22.02.2018 08:00:00 3,8 0,2 3 2 11 6 ENE 0,0
22.02.2018 07:00:00 3,5 -0,3 1 1 10 6 NNW -
22.02.2018 06:00:00 3,3 -1,2 1 1 15 8 NNE 0,0
22.02.2018 05:00:00 3,5 -1,7 8 4 28 15 NE 0,0
22.02.2018 04:00:00 4,1 -0,3 5 3 26 14 NNE 0,0
22.02.2018 03:00:00 4,0 -0,5 3 1 26 14 NE 0,0
22.02.2018 02:00:00 4,1 -1,2 4 2 27 14 ENE 0,0
22.02.2018 01:00:00 4,2 -1,4 8 5 24 13 ENE -
22.02.2018 00:00:00 4,1 -1,2 7 4 23 12 NNE 0,0
21.02.2018 23:00:00 4,6 -0,7 6 3 27 14 NNE 0,0
21.02.2018 22:00:00 4,7 -0,3 3 2 28 15 N 0,0
21.02.2018 21:00:00 4,8 -0,7 8 4 32 17 NNE 0,0
21.02.2018 20:00:00 4,7 -0,7 6 3 31 17 NE 0,0
21.02.2018 19:00:00 4,6 -0,3 8 4 34 19 NNE -
21.02.2018 18:00:00 4,2 0,2 5 3 36 19 NNE 0,0
21.02.2018 17:00:00 4,1 -1,7 10 6 31 17 ENE 0,0
21.02.2018 16:00:00 3,8 -0,5 3 2 27 15 ENE 0,0
21.02.2018 15:00:00 4,0 -0,3 4 2 21 11 ENE 0,1
21.02.2018 14:00:00 4,4 0,6 4 2 18 10 E 0,0
21.02.2018 13:00:00 3,9 2,3 3 2 13 7 SW -
21.02.2018 12:00:00 3,8 2,1 4 2 12 6 W 0,4
21.02.2018 11:00:00 4,2 2,5 0 0 15 8 E 0,9
21.02.2018 10:00:00 4,2 2,5 3 1 18 10 SW 3,7
21.02.2018 09:00:00 4,9 2,9 1 0 19 11 SSE 3,7
21.02.2018 08:00:00 6,1 3,6 3 2 16 9 ESE 0,0
21.02.2018 07:00:00 6,2 4,1 2 1 13 7 E -
21.02.2018 06:00:00 6,2 4,5 1 0 11 6 NE 0,0
21.02.2018 05:00:00 6,2 4,1 1 1 14 8 SW 0,0
21.02.2018 04:00:00 6,9 5,0 3 1 17 9 SW 0,3
21.02.2018 03:00:00 7,2 5,1 1 0 18 10 E 0,5
21.02.2018 02:00:00 7,6 5,5 3 1 22 12 S 0,0
21.02.2018 01:00:00 8,3 5,8 5 3 15 8 E -
21.02.2018 00:00:00 8,5 5,8 3 1 13 7 SSE 0,0
20.02.2018 23:00:00 7,7 5,0 3 1 22 12 SSE 0,0
20.02.2018 22:00:00 6,3 4,1 1 1 8 5 SW 0,0
20.02.2018 21:00:00 7,3 4,1 0 0 11 6 WSW 0,0
20.02.2018 20:00:00 9,7 5,1 3 2 23 12 S 0,0
20.02.2018 19:00:00 9,5 4,5 4 2 23 12 SE -
20.02.2018 18:00:00 9,3 4,3 4 2 26 14 SE 0,0
20.02.2018 17:00:00 9,6 4,6 5 3 28 15 SE 0,0
20.02.2018 16:00:00 9,7 4,6 6 4 21 12 SE 0,0
20.02.2018 15:00:00 10,4 5,9 4 2 21 11 SSE 0,0
20.02.2018 14:00:00 9,8 6,5 3 1 9 5 S 0,0
20.02.2018 13:00:00 9,5 6,2 2 1 16 9 SSE -
20.02.2018 12:00:00 9,8 6,1 4 2 23 13 SSE 0,0
20.02.2018 11:00:00 9,4 6,2 5 3 18 10 SSE 0,0
20.02.2018 10:00:00 9,2 7,1 4 2 17 9 SSE 0,0
20.02.2018 09:00:00 8,1 6,5 3 2 13 7 SSE 0,0
20.02.2018 08:00:00 6,6 5,1 0 0 8 5 SSE 0,0
20.02.2018 07:00:00 6,2 4,6 0 0 3 2 W -
20.02.2018 06:00:00 6,1 4,6 0 0 4 2 SE 0,0
20.02.2018 05:00:00 5,4 3,9 0 0 0 0 N 0,2
20.02.2018 04:00:00 5,0 3,4 0 0 0 0 N 0,4
20.02.2018 03:00:00 4,1 2,7 0 0 0 0 N 0,0
20.02.2018 02:00:00 3,3 1,9 0 0 0 0 N 0,0
20.02.2018 01:00:00 2,9 1,3 0 0 0 0 N -
20.02.2018 00:00:00 3,1 1,5 0 0 0 0 N 0,0
19.02.2018 23:00:00 3,6 1,9 0 0 0 0 N 0,0
19.02.2018 22:00:00 4,4 2,5 0 0 0 0 N 0,0
19.02.2018 21:00:00 5,6 3,4 0 0 0 0 N 0,0
19.02.2018 20:00:00 7,4 5,0 0 0 5 3 N 0,0
19.02.2018 19:00:00 8,3 5,8 1 1 10 5 ESE -
19.02.2018 18:00:00 9,0 5,8 3 1 10 5 SE 0,0
19.02.2018 17:00:00 9,4 5,1 1 1 14 8 S 0,0
19.02.2018 16:00:00 9,4 4,1 1 0 19 10 S 0,0
19.02.2018 15:00:00 11,0 3,2 4 2 26 14 SE 0,0
19.02.2018 14:00:00 12,0 2,7 5 3 16 8 SSW 0,0
19.02.2018 13:00:00 10,8 3,0 4 2 18 10 SSE -
19.02.2018 12:00:00 11,0 2,5 2 1 16 8 ESE 0,0
19.02.2018 11:00:00 11,8 5,9 3 1 8 5 W 0,0
19.02.2018 10:00:00 9,3 7,6 1 0 6 4 S 0,0
19.02.2018 09:00:00 5,4 3,9 0 0 2 1 N 0,0
19.02.2018 08:00:00 4,1 2,7 0 0 1 0 N 0,0
19.02.2018 07:00:00 4,5 3,0 0 0 4 2 N -
19.02.2018 06:00:00 4,2 2,7 0 0 5 3 ESE 0,0
19.02.2018 05:00:00 3,4 1,9 0 0 2 1 SSE 0,0
19.02.2018 04:00:00 2,6 1,1 0 0 10 5 ESE 0,0
19.02.2018 03:00:00 1,9 0,4 0 0 0 0 N 0,0
19.02.2018 02:00:00 1,8 0,4 0 0 0 0 N 0,0
19.02.2018 01:00:00 1,7 0,2 0 0 0 0 N -
19.02.2018 00:00:00 2,0 0,4 0 0 0 0 N 0,0
18.02.2018 23:00:00 2,2 0,6 0 0 0 0 N 0,0
18.02.2018 22:00:00 1,9 0,2 0 0 0 0 N 0,0
18.02.2018 21:00:00 2,1 0,4 0 0 6 3 N 0,0
18.02.2018 20:00:00 3,0 0,9 0 0 4 2 NE 0,0
18.02.2018 19:00:00 4,9 2,3 0 0 4 2 SSE -
18.02.2018 18:00:00 7,3 3,4 0 0 8 4 SW 0,0
18.02.2018 17:00:00 8,5 4,3 0 0 7 4 N 0,0
18.02.2018 16:00:00 8,3 4,5 3 1 14 8 W 0,0
18.02.2018 15:00:00 8,6 5,1 3 2 10 5 SE 0,0
18.02.2018 14:00:00 8,4 5,5 1 1 11 6 S 0,0
18.02.2018 13:00:00 7,6 5,8 0 0 9 5 SSE -
18.02.2018 12:00:00 7,9 5,3 4 2 13 7 SSW 0,0
18.02.2018 11:00:00 8,6 6,7 2 1 14 7 SSE 0,2
18.02.2018 10:00:00 8,1 5,8 1 0 5 3 SSW 0,0
18.02.2018 09:00:00 7,3 5,3 1 0 4 2 ESE 0,0
18.02.2018 08:00:00 6,9 4,8 0 0 7 4 N 0,0
18.02.2018 07:00:00 7,2 5,1 1 1 8 4 SW -
18.02.2018 06:00:00 6,3 3,9 0 0 3 2 W 0,0
18.02.2018 05:00:00 7,3 4,3 0 0 13 7 WNW 0,0
18.02.2018 04:00:00 8,0 4,6 1 0 9 5 N 0,0
18.02.2018 03:00:00 8,2 4,5 1 1 11 6 SW 0,0
18.02.2018 02:00:00 8,4 3,9 1 0 18 10 SW 0,0
18.02.2018 01:00:00 8,5 3,9 1 1 16 9 NW -
18.02.2018 00:00:00 8,6 4,3 4 2 16 9 S 0,0
17.02.2018 23:00:00 8,5 3,6 4 2 25 13 SE 0,0
17.02.2018 22:00:00 8,8 4,5 3 2 22 12 WNW 0,0
17.02.2018 21:00:00 8,8 5,0 5 3 31 17 NE 0,0
17.02.2018 20:00:00 8,9 5,5 6 4 27 14 E 0,1
17.02.2018 19:00:00 9,9 7,3 3 2 18 10 ENE -
17.02.2018 18:00:00 10,2 6,8 2 1 14 8 SW 0,0
17.02.2018 17:00:00 10,7 6,8 1 0 20 11 SSE 0,0
17.02.2018 16:00:00 12,7 5,8 3 2 23 12 E 0,0
17.02.2018 15:00:00 14,5 6,4 3 2 13 7 S 0,0
17.02.2018 14:00:00 15,2 6,5 3 1 14 7 SSW 0,0
17.02.2018 13:00:00 14,3 5,3 4 2 13 7 E -
17.02.2018 12:00:00 14,6 4,8 1 0 9 5 ESE 0,0
17.02.2018 11:00:00 13,9 6,7 4 2 8 4 W 0,0
17.02.2018 10:00:00 10,2 8,5 0 0 0 0 N 0,0
17.02.2018 09:00:00 5,5 3,8 0 0 0 0 N 0,0
17.02.2018 08:00:00 4,2 2,5 0 0 0 0 N 0,0
17.02.2018 07:00:00 4,6 2,9 0 0 0 0 N -

tt = Température de l'air
td = dewpoint
ff = Vitesse du vent
fx = gusts
dd = Direction du vent
rr = Quantités de précipitations

stations d'obs. à proximité